createdAt,value
2018-10-04T00:00:08.277Z,0
2018-10-04T00:01:08.262Z,0
2018-10-04T00:02:08.243Z,0
2018-10-04T00:03:07.723Z,0
2018-10-04T00:04:08.177Z,0
2018-10-04T00:05:08.523Z,0
2018-10-04T00:06:07.677Z,0
2018-10-04T00:07:07.666Z,0
2018-10-04T00:08:07.646Z,0
2018-10-04T00:09:09.082Z,0
2018-10-04T00:10:08.109Z,0
2018-10-04T00:11:07.858Z,0
2018-10-04T00:12:08.096Z,0
2018-10-04T00:13:07.832Z,0
2018-10-04T00:14:08.337Z,0
2018-10-04T00:15:07.426Z,0
2018-10-04T00:16:07.784Z,0
2018-10-04T00:17:07.771Z,0
2018-10-04T00:18:07.753Z,0
2018-10-04T00:19:08.408Z,0
2018-10-04T00:20:07.468Z,0
2018-10-04T00:21:07.972Z,0
2018-10-04T00:22:07.713Z,0
2018-10-04T00:23:08.017Z,0
2018-10-04T00:24:08.119Z,0
2018-10-04T00:25:07.900Z,0
2018-10-04T00:26:07.894Z,0
2018-10-04T00:27:07.627Z,0
2018-10-04T00:28:07.458Z,0
2018-10-04T00:29:07.741Z,0
2018-10-04T00:30:07.327Z,0
2018-10-04T00:31:07.567Z,0
2018-10-04T00:32:07.550Z,0
2018-10-04T00:33:07.530Z,0
2018-10-04T00:34:07.776Z,0
2018-10-04T00:35:07.499Z,0
2018-10-04T00:36:07.226Z,0
2018-10-04T00:37:08.072Z,0
2018-10-04T00:38:07.459Z,0
2018-10-04T00:39:07.185Z,0
2018-10-04T00:40:07.236Z,0
2018-10-04T00:41:08.235Z,0
2018-10-04T00:42:07.658Z,0
2018-10-04T00:43:07.385Z,0
2018-10-04T00:44:07.627Z,0
2018-10-04T00:45:07.433Z,0
2018-10-04T00:46:07.890Z,0
2018-10-04T00:47:07.750Z,0
2018-10-04T00:48:07.312Z,0
2018-10-04T00:49:07.561Z,0
2018-10-04T00:50:07.027Z,0
2018-10-04T00:51:07.529Z,0
2018-10-04T00:52:08.174Z,0
2018-10-04T00:53:07.238Z,0
2018-10-04T00:54:07.218Z,0
2018-10-04T00:55:07.477Z,0
2018-10-04T00:56:07.191Z,0
2018-10-04T00:57:07.256Z,0
2018-10-04T00:58:07.517Z,0
2018-10-04T00:59:07.410Z,0
2018-10-04T01:00:07.137Z,0
2018-10-04T01:01:07.120Z,0
2018-10-04T01:02:07.216Z,0
2018-10-04T01:03:07.475Z,0
2018-10-04T01:04:07.070Z,0
2018-10-04T01:05:07.247Z,0
2018-10-04T01:06:06.531Z,0
2018-10-04T01:07:07.028Z,0
2018-10-04T01:08:07.452Z,0
2018-10-04T01:09:07.417Z,0
2018-10-04T01:10:06.725Z,0
2018-10-04T01:11:06.715Z,0
2018-10-04T01:12:06.958Z,0
2018-10-04T01:13:07.310Z,0
2018-10-04T01:14:07.186Z,0
2018-10-04T01:15:06.926Z,0
2018-10-04T01:16:07.761Z,0
2018-10-04T01:17:06.623Z,0
2018-10-04T01:18:07.124Z,0
2018-10-04T01:19:07.113Z,0
2018-10-04T01:20:07.088Z,0
2018-10-04T01:21:06.925Z,0
2018-10-04T01:22:06.554Z,0
2018-10-04T01:23:06.532Z,0
2018-10-04T01:24:07.036Z,0
2018-10-04T01:25:07.018Z,0
2018-10-04T01:26:07.713Z,0
2018-10-04T01:27:06.481Z,0
2018-10-04T01:28:06.978Z,0
2018-10-04T01:29:06.451Z,0
2018-10-04T01:30:06.761Z,0
2018-10-04T01:31:07.461Z,0
2018-10-04T01:32:06.656Z,0
2018-10-04T01:33:06.381Z,0
2018-10-04T01:34:06.623Z,0
2018-10-04T01:35:06.867Z,0
2018-10-04T01:36:07.133Z,0
2018-10-04T01:37:06.583Z,0
2018-10-04T01:38:06.814Z,0
2018-10-04T01:39:06.798Z,0
2018-10-04T01:40:06.552Z,0
2018-10-04T01:41:06.824Z,0
2018-10-04T01:42:06.506Z,0
2018-10-04T01:43:06.738Z,0
2018-10-04T01:44:06.730Z,0
2018-10-04T01:45:06.764Z,0
2018-10-04T01:46:07.137Z,0
2018-10-04T01:47:06.697Z,0
2018-10-04T01:48:06.154Z,0
2018-10-04T01:49:06.139Z,0
2018-10-04T01:50:06.180Z,0
2018-10-04T01:51:06.662Z,0
2018-10-04T01:52:06.351Z,0
2018-10-04T01:53:06.075Z,0
2018-10-04T01:54:06.574Z,0
2018-10-04T01:55:07.148Z,0
2018-10-04T01:56:06.029Z,0
2018-10-04T01:57:06.275Z,0
2018-10-04T01:58:06.003Z,0
2018-10-04T01:59:06.494Z,0
2018-10-04T02:00:06.715Z,0
2018-10-04T02:01:06.512Z,0
2018-10-04T02:02:06.457Z,0
2018-10-04T02:03:06.438Z,0
2018-10-04T02:04:06.524Z,0
2018-10-04T02:05:06.513Z,0
2018-10-04T02:06:06.138Z,0
2018-10-04T02:07:06.125Z,0
2018-10-04T02:08:06.366Z,0
2018-10-04T02:09:06.146Z,0
2018-10-04T02:10:06.095Z,0
2018-10-04T02:11:06.057Z,0
2018-10-04T02:12:06.316Z,0
2018-10-04T02:13:06.033Z,0
2018-10-04T02:14:06.008Z,0
2018-10-04T02:15:06.005Z,0
2018-10-04T02:16:06.368Z,0
2018-10-04T02:17:06.223Z,0
2018-10-04T02:18:06.214Z,0
2018-10-04T02:19:06.196Z,0
2018-10-04T02:20:06.180Z,0
2018-10-04T02:21:06.152Z,0
2018-10-04T02:22:05.898Z,0
2018-10-04T02:23:05.898Z,0
2018-10-04T02:24:06.111Z,0
2018-10-04T02:25:06.115Z,0
2018-10-04T02:26:06.293Z,0
2018-10-04T02:27:05.810Z,0
2018-10-04T02:28:05.797Z,0
2018-10-04T02:29:06.038Z,0
2018-10-04T02:30:05.783Z,0
2018-10-04T02:31:06.916Z,0
2018-10-04T02:32:05.739Z,0
2018-10-04T02:33:05.979Z,0
2018-10-04T02:34:05.965Z,0
2018-10-04T02:35:05.696Z,0
2018-10-04T02:36:05.924Z,0
2018-10-04T02:37:05.910Z,0
2018-10-04T02:38:05.638Z,0
2018-10-04T02:39:05.881Z,0
2018-10-04T02:40:05.610Z,0
2018-10-04T02:41:05.870Z,0
2018-10-04T02:42:05.585Z,0
2018-10-04T02:43:05.825Z,0
2018-10-04T02:44:05.805Z,0
2018-10-04T02:45:05.783Z,0
2018-10-04T02:46:05.780Z,0
2018-10-04T02:47:05.762Z,0
2018-10-04T02:48:05.423Z,0
2018-10-04T02:49:05.957Z,0
2018-10-04T02:50:05.455Z,0
2018-10-04T02:51:05.178Z,0
2018-10-04T02:52:05.424Z,0
2018-10-04T02:53:05.663Z,0
2018-10-04T02:54:05.400Z,0
2018-10-04T02:55:05.114Z,0
2018-10-04T02:56:05.616Z,0
2018-10-04T02:57:05.350Z,0
2018-10-04T02:58:05.590Z,0
2018-10-04T02:59:05.572Z,0
2018-10-04T03:00:05.547Z,0
2018-10-04T03:01:05.291Z,0
2018-10-04T03:02:05.532Z,0
2018-10-04T03:03:05.250Z,0
2018-10-04T03:04:05.488Z,0
2018-10-04T03:05:05.543Z,0
2018-10-04T03:06:04.950Z,0
2018-10-04T03:07:05.455Z,0
2018-10-04T03:08:05.437Z,0
2018-10-04T03:09:05.408Z,0
2018-10-04T03:10:05.157Z,0
2018-10-04T03:11:04.877Z,0
2018-10-04T03:12:05.367Z,0
2018-10-04T03:13:05.343Z,0
2018-10-04T03:14:05.090Z,0
2018-10-04T03:15:04.809Z,0
2018-10-04T03:16:05.311Z,0
2018-10-04T03:17:05.038Z,0
2018-10-04T03:18:04.762Z,0
2018-10-04T03:19:05.003Z,0
2018-10-04T03:20:05.219Z,0
2018-10-04T03:21:05.221Z,0
2018-10-04T03:22:04.975Z,0
2018-10-04T03:23:04.933Z,0
2018-10-04T03:24:05.186Z,0
2018-10-04T03:25:05.173Z,0
2018-10-04T03:26:04.635Z,0
2018-10-04T03:27:04.621Z,0
2018-10-04T03:28:05.136Z,0
2018-10-04T03:29:05.102Z,0
2018-10-04T03:30:05.680Z,0
2018-10-04T03:31:04.821Z,0
2018-10-04T03:32:04.798Z,0
2018-10-04T03:33:04.789Z,0
2018-10-04T03:34:05.027Z,0
2018-10-04T03:35:04.746Z,0
2018-10-04T03:36:04.990Z,0
2018-10-04T03:37:04.727Z,0
2018-10-04T03:38:04.960Z,0
2018-10-04T03:39:04.689Z,0
2018-10-04T03:40:04.690Z,0
2018-10-04T03:41:04.412Z,0
2018-10-04T03:42:04.893Z,0
2018-10-04T03:43:04.636Z,0
2018-10-04T03:44:04.933Z,0
2018-10-04T03:45:04.600Z,0
2018-10-04T03:46:04.620Z,0
2018-10-04T03:47:04.079Z,0
2018-10-04T03:48:04.546Z,0
2018-10-04T03:49:04.796Z,0
2018-10-04T03:50:04.521Z,0
2018-10-04T03:51:04.766Z,0
2018-10-04T03:52:04.489Z,0
2018-10-04T03:53:04.732Z,0
2018-10-04T03:54:04.200Z,0
2018-10-04T03:55:04.703Z,0
2018-10-04T03:56:04.673Z,0
2018-10-04T03:57:04.657Z,0
2018-10-04T03:58:04.641Z,0
2018-10-04T03:59:04.371Z,0
2018-10-04T04:00:04.617Z,0
2018-10-04T04:01:04.601Z,0
2018-10-04T04:02:04.332Z,0
2018-10-04T04:03:04.574Z,0
2018-10-04T04:04:05.014Z,0
2018-10-04T04:05:04.531Z,0
2018-10-04T04:06:04.015Z,0
2018-10-04T04:07:04.567Z,0
2018-10-04T04:08:04.232Z,0
2018-10-04T04:09:04.479Z,0
2018-10-04T04:10:04.460Z,0
2018-10-04T04:11:04.193Z,0
2018-10-04T04:12:04.664Z,0
2018-10-04T04:13:04.161Z,0
2018-10-04T04:14:04.165Z,0
2018-10-04T04:15:04.392Z,0
2018-10-04T04:16:04.367Z,0
2018-10-04T04:17:04.105Z,0
2018-10-04T04:18:04.074Z,0
2018-10-04T04:19:04.061Z,0
2018-10-04T04:20:03.789Z,0
2018-10-04T04:21:04.283Z,0
2018-10-04T04:22:04.306Z,0
2018-10-04T04:23:04.262Z,0
2018-10-04T04:24:03.751Z,0
2018-10-04T04:25:04.367Z,0
2018-10-04T04:26:04.217Z,0
2018-10-04T04:27:03.935Z,0
2018-10-04T04:28:04.213Z,0
2018-10-04T04:29:04.176Z,0
2018-10-04T04:30:03.899Z,0
2018-10-04T04:31:04.130Z,0
2018-10-04T04:32:04.319Z,0
2018-10-04T04:33:03.839Z,0
2018-10-04T04:34:03.855Z,0
2018-10-04T04:35:03.560Z,0
2018-10-04T04:36:03.793Z,0
2018-10-04T04:37:04.034Z,0
2018-10-04T04:38:03.789Z,0
2018-10-04T04:39:03.796Z,0
2018-10-04T04:40:03.735Z,0
2018-10-04T04:41:04.354Z,0
2018-10-04T04:42:03.750Z,0
2018-10-04T04:43:03.688Z,0
2018-10-04T04:44:03.672Z,0
2018-10-04T04:45:03.649Z,0
2018-10-04T04:46:03.889Z,4
2018-10-04T04:47:04.046Z,0
2018-10-04T04:48:03.610Z,4
2018-10-04T04:49:03.330Z,4
2018-10-04T04:50:03.567Z,4
2018-10-04T04:51:03.808Z,4
2018-10-04T04:52:03.555Z,4
2018-10-04T04:53:03.856Z,8
2018-10-04T04:54:03.764Z,8
2018-10-04T04:55:02.977Z,8
2018-10-04T04:56:03.472Z,12
2018-10-04T04:57:03.458Z,16
2018-10-04T04:58:03.189Z,20
2018-10-04T04:59:03.737Z,20
2018-10-04T05:00:03.414Z,24
2018-10-04T05:01:03.389Z,28
2018-10-04T05:02:03.633Z,32
2018-10-04T05:03:03.384Z,36
2018-10-04T05:04:03.600Z,44
2018-10-04T05:05:03.339Z,52
2018-10-04T05:06:03.725Z,56
2018-10-04T05:07:03.566Z,68
2018-10-04T05:08:03.538Z,80
2018-10-04T05:09:03.520Z,92
2018-10-04T05:10:03.253Z,100
2018-10-04T05:11:03.240Z,112
2018-10-04T05:12:03.222Z,128
2018-10-04T05:13:03.209Z,144
2018-10-04T05:14:03.453Z,160
2018-10-04T05:15:02.928Z,176
2018-10-04T05:16:03.458Z,192
2018-10-04T05:17:03.467Z,208
2018-10-04T05:18:03.136Z,228
2018-10-04T05:19:03.385Z,252
2018-10-04T05:20:03.099Z,268
2018-10-04T05:21:03.333Z,284
2018-10-04T05:22:03.061Z,304
2018-10-04T05:23:03.307Z,324
2018-10-04T05:24:03.285Z,344
2018-10-04T05:25:03.017Z,364
2018-10-04T05:26:03.252Z,392
2018-10-04T05:27:03.247Z,424
2018-10-04T05:28:03.124Z,452
2018-10-04T05:29:02.956Z,476
2018-10-04T05:30:02.953Z,504
2018-10-04T05:31:02.921Z,532
2018-10-04T05:32:03.164Z,556
2018-10-04T05:33:02.903Z,580
2018-10-04T05:34:02.879Z,604
2018-10-04T05:35:02.606Z,636
2018-10-04T05:36:03.101Z,664
2018-10-04T05:37:02.745Z,696
2018-10-04T05:38:03.075Z,728
2018-10-04T05:39:03.051Z,764
2018-10-04T05:40:02.778Z,804
2018-10-04T05:41:03.032Z,852
2018-10-04T05:42:02.755Z,896
2018-10-04T05:43:02.738Z,936
2018-10-04T05:44:02.978Z,968
2018-10-04T05:45:03.437Z,988
2018-10-04T05:46:02.689Z,1040
2018-10-04T05:47:02.934Z,1092
2018-10-04T05:48:02.966Z,1132
2018-10-04T05:49:02.643Z,1164
2018-10-04T05:50:02.631Z,1192
2018-10-04T05:51:02.611Z,1212
2018-10-04T05:52:02.603Z,1236
2018-10-04T05:53:03.186Z,1256
2018-10-04T05:54:02.825Z,1272
2018-10-04T05:55:02.303Z,1288
2018-10-04T05:56:02.796Z,1312
2018-10-04T05:57:02.265Z,1336
2018-10-04T05:58:02.757Z,1360
2018-10-04T05:59:03.159Z,1388
2018-10-04T06:00:02.736Z,1416
2018-10-04T06:01:02.477Z,1436
2018-10-04T06:02:02.445Z,1460
2018-10-04T06:03:02.428Z,1488
2018-10-04T06:04:02.419Z,1516
2018-10-04T06:05:03.380Z,1536
2018-10-04T06:06:02.640Z,1560
2018-10-04T06:07:02.396Z,1584
2018-10-04T06:08:02.608Z,1596
2018-10-04T06:09:02.617Z,1612
2018-10-04T06:10:02.330Z,1632
2018-10-04T06:11:02.305Z,1636
2018-10-04T06:12:02.299Z,1652
2018-10-04T06:13:02.544Z,1664
2018-10-04T06:14:02.004Z,1672
2018-10-04T06:15:02.189Z,1692
2018-10-04T06:16:02.493Z,1704
2018-10-04T06:17:02.473Z,1724
2018-10-04T06:18:02.208Z,1744
2018-10-04T06:19:02.184Z,1760
2018-10-04T06:20:02.431Z,1780
2018-10-04T06:21:02.420Z,1796
2018-10-04T06:22:02.826Z,1816
2018-10-04T06:23:01.876Z,1840
2018-10-04T06:24:02.375Z,1852
2018-10-04T06:25:02.106Z,1864
2018-10-04T06:26:02.343Z,1884
2018-10-04T06:27:02.321Z,1900
2018-10-04T06:28:02.315Z,1920
2018-10-04T06:29:02.041Z,1940
2018-10-04T06:30:01.776Z,1948
2018-10-04T06:31:02.299Z,1964
2018-10-04T06:32:02.247Z,1976
2018-10-04T06:33:02.293Z,1992
2018-10-04T06:34:01.966Z,2004
2018-10-04T06:35:02.488Z,2016
2018-10-04T06:36:01.932Z,2036
2018-10-04T06:37:02.220Z,2056
2018-10-04T06:38:02.164Z,2068
2018-10-04T06:39:02.150Z,2072
2018-10-04T06:40:02.205Z,2072
2018-10-04T06:41:01.907Z,2076
2018-10-04T06:42:02.161Z,2084
2018-10-04T06:43:01.842Z,2104
2018-10-04T06:44:01.932Z,2120
2018-10-04T06:45:01.803Z,2136
2018-10-04T06:46:02.045Z,2152
2018-10-04T06:47:02.035Z,2164
2018-10-04T06:48:02.030Z,2176
2018-10-04T06:49:02.049Z,2184
2018-10-04T06:50:02.041Z,2200
2018-10-04T06:51:01.971Z,2212
2018-10-04T06:52:01.706Z,2228
2018-10-04T06:53:01.689Z,2240
2018-10-04T06:54:01.683Z,2256
2018-10-04T06:55:01.929Z,2276
2018-10-04T06:56:01.904Z,2288
2018-10-04T06:57:01.890Z,2296
2018-10-04T06:58:02.235Z,2308
2018-10-04T06:59:01.604Z,2324
2018-10-04T07:00:01.860Z,2340
2018-10-04T07:01:01.579Z,2352
2018-10-04T07:02:01.564Z,2360
2018-10-04T07:03:01.828Z,2364
2018-10-04T07:04:02.126Z,2364
2018-10-04T07:05:01.268Z,2376
2018-10-04T07:06:01.512Z,2380
2018-10-04T07:07:01.751Z,2384
2018-10-04T07:08:01.479Z,2372
2018-10-04T07:09:01.471Z,2272
2018-10-04T07:10:01.262Z,2296
2018-10-04T07:11:01.442Z,2384
2018-10-04T07:12:01.430Z,2392
2018-10-04T07:13:01.679Z,2392
2018-10-04T07:14:01.655Z,2384
2018-10-04T07:15:01.691Z,2380
2018-10-04T07:16:01.374Z,2348
2018-10-04T07:17:01.617Z,2360
2018-10-04T07:18:01.604Z,2336
2018-10-04T07:19:01.083Z,2288
2018-10-04T07:20:01.572Z,2284
2018-10-04T07:21:01.877Z,2304
2018-10-04T07:22:01.297Z,2340
2018-10-04T07:23:01.544Z,2392
2018-10-04T07:24:01.011Z,2408
2018-10-04T07:25:01.514Z,2428
2018-10-04T07:26:01.507Z,2456
2018-10-04T07:27:01.493Z,2468
2018-10-04T07:28:01.215Z,2488
2018-10-04T07:29:01.459Z,2516
2018-10-04T07:30:01.446Z,2524
2018-10-04T07:31:01.425Z,2536
2018-10-04T07:32:01.422Z,2552
2018-10-04T07:33:01.414Z,2564
2018-10-04T07:34:01.134Z,2584
2018-10-04T07:35:00.977Z,2596
2018-10-04T07:36:01.118Z,2600
2018-10-04T07:37:01.362Z,2608
2018-10-04T07:38:01.090Z,2620
2018-10-04T07:39:01.067Z,2628
2018-10-04T07:40:01.070Z,2648
2018-10-04T07:41:01.299Z,2668
2018-10-04T07:42:00.927Z,2680
2018-10-04T07:43:01.030Z,2692
2018-10-04T07:44:01.257Z,2708
2018-10-04T07:45:01.249Z,2720
2018-10-04T07:46:00.983Z,2724
2018-10-04T07:47:01.218Z,2724
2018-10-04T07:48:01.226Z,2720
2018-10-04T07:49:00.687Z,2720
2018-10-04T07:50:00.678Z,2736
2018-10-04T07:51:01.165Z,2736
2018-10-04T07:52:00.926Z,2744
2018-10-04T07:53:00.891Z,2748
2018-10-04T07:54:01.182Z,2752
2018-10-04T07:55:01.115Z,2772
2018-10-04T07:56:00.851Z,2784
2018-10-04T07:57:01.097Z,2792
2018-10-04T07:58:00.565Z,2808
2018-10-04T07:59:01.071Z,2824
2018-10-04T08:00:00.869Z,2836
2018-10-04T08:01:01.047Z,2852
2018-10-04T08:02:01.040Z,2864
2018-10-04T08:03:01.049Z,2884
2018-10-04T08:04:00.758Z,2888
2018-10-04T08:05:00.740Z,2892
2018-10-04T08:06:01.229Z,2900
2018-10-04T08:07:00.982Z,2896
2018-10-04T08:08:00.972Z,2920
2018-10-04T08:09:00.953Z,2928
2018-10-04T08:10:00.680Z,2936
2018-10-04T08:11:00.673Z,2944
2018-10-04T08:12:00.666Z,2948
2018-10-04T08:13:00.894Z,2952
2018-10-04T08:14:00.897Z,2948
2018-10-04T08:15:00.626Z,2948
2018-10-04T08:16:00.617Z,2940
2018-10-04T08:17:00.856Z,2936
2018-10-04T08:18:00.852Z,2920
2018-10-04T08:19:00.319Z,2908
2018-10-04T08:20:00.816Z,2924
2018-10-04T08:21:00.731Z,2928
2018-10-04T08:22:00.793Z,2952
2018-10-04T08:23:00.533Z,2952
2018-10-04T08:24:00.263Z,2936
2018-10-04T08:25:00.505Z,2928
2018-10-04T08:26:00.491Z,2928
2018-10-04T08:27:00.493Z,2928
2018-10-04T08:28:00.723Z,2936
2018-10-04T08:29:00.457Z,2932
2018-10-04T08:30:00.707Z,2940
2018-10-04T08:31:00.429Z,2932
2018-10-04T08:32:00.422Z,2924
2018-10-04T08:33:00.164Z,2932
2018-10-04T08:34:00.144Z,2940
2018-10-04T08:35:00.169Z,2936
2018-10-04T08:36:00.376Z,2940
2018-10-04T08:37:00.623Z,2944
2018-10-04T08:38:00.608Z,2944
2018-10-04T08:39:00.098Z,2940
2018-10-04T08:40:00.596Z,2948
2018-10-04T08:41:00.591Z,2952
2018-10-04T08:42:00.807Z,2956
2018-10-04T08:43:00.551Z,2948
2018-10-04T08:44:00.547Z,2932
2018-10-04T08:45:00.534Z,2920
2018-10-04T08:46:00.525Z,2960
2018-10-04T08:47:00.510Z,2964
2018-10-04T08:48:00.501Z,2964
2018-10-04T08:48:59.979Z,2960
2018-10-04T08:50:00.479Z,2952
2018-10-04T08:50:59.708Z,2948
2018-10-04T08:52:00.196Z,2936
2018-10-04T08:53:00.037Z,2972
2018-10-04T08:54:00.450Z,2972
2018-10-04T08:54:59.918Z,2972
2018-10-04T08:56:00.413Z,2964
2018-10-04T08:57:00.401Z,2984
2018-10-04T08:58:00.393Z,2992
2018-10-04T08:59:00.380Z,3008
2018-10-04T09:00:00.375Z,2996
2018-10-04T09:01:00.105Z,3000
2018-10-04T09:02:00.093Z,3008
2018-10-04T09:03:00.490Z,3008
2018-10-04T09:03:59.816Z,3008
2018-10-04T09:05:00.064Z,3000
2018-10-04T09:06:00.317Z,2996
2018-10-04T09:07:00.298Z,2972
2018-10-04T09:08:00.180Z,2940
2018-10-04T09:09:00.042Z,2952
2018-10-04T09:10:00.014Z,2944
2018-10-04T09:10:59.999Z,2948
2018-10-04T09:11:59.991Z,2956
2018-10-04T09:13:00.235Z,2956
2018-10-04T09:14:00.219Z,2936
2018-10-04T09:15:00.226Z,2932
2018-10-04T09:16:00.257Z,2936
2018-10-04T09:16:59.946Z,2940
2018-10-04T09:18:00.236Z,2936
2018-10-04T09:18:59.918Z,2936
2018-10-04T09:19:59.909Z,2924
2018-10-04T09:20:59.911Z,2928
2018-10-04T09:21:59.884Z,2928
2018-10-04T09:23:00.135Z,2920
2018-10-04T09:23:59.624Z,2920
2018-10-04T09:25:00.124Z,2920
2018-10-04T09:26:00.116Z,2904
2018-10-04T09:26:59.839Z,2896
2018-10-04T09:27:59.584Z,2880
2018-10-04T09:29:00.072Z,2872
2018-10-04T09:29:59.814Z,2880
2018-10-04T09:31:00.057Z,2884
2018-10-04T09:32:00.222Z,2888
2018-10-04T09:33:00.038Z,2876
2018-10-04T09:34:00.030Z,2868
2018-10-04T09:35:00.030Z,2860
2018-10-04T09:36:00.013Z,2856
2018-10-04T09:36:59.998Z,2844
2018-10-04T09:37:59.989Z,2860
2018-10-04T09:38:59.980Z,2868
2018-10-04T09:39:59.979Z,2856
2018-10-04T09:40:59.973Z,2816
2018-10-04T09:41:59.707Z,2812
2018-10-04T09:42:59.691Z,2820
2018-10-04T09:43:59.941Z,2836
2018-10-04T09:44:59.675Z,2800
2018-10-04T09:45:59.409Z,2768
2018-10-04T09:46:59.910Z,2732
2018-10-04T09:47:59.651Z,2644
2018-10-04T09:48:59.649Z,2644
2018-10-04T09:49:59.634Z,2680
2018-10-04T09:50:59.363Z,2716
2018-10-04T09:51:59.358Z,2728
2018-10-04T09:52:59.613Z,2724
2018-10-04T09:54:00.123Z,2752
2018-10-04T09:54:59.840Z,2772
2018-10-04T09:55:59.597Z,2820
2018-10-04T09:56:59.565Z,2836
2018-10-04T09:57:59.562Z,2788
2018-10-04T09:58:59.550Z,2760
2018-10-04T10:00:00.109Z,2740
2018-10-04T10:00:59.792Z,2756
2018-10-04T10:01:59.529Z,2772
2018-10-04T10:02:59.791Z,2812
2018-10-04T10:03:59.806Z,2872
2018-10-04T10:04:59.754Z,2892
2018-10-04T10:05:59.750Z,2896
2018-10-04T10:06:59.737Z,2888
2018-10-04T10:07:59.729Z,2880
2018-10-04T10:08:59.720Z,2888
2018-10-04T10:09:59.457Z,2888
2018-10-04T10:10:59.706Z,2880
2018-10-04T10:11:59.996Z,2856
2018-10-04T10:12:59.439Z,2856
2018-10-04T10:13:59.427Z,2900
2018-10-04T10:14:59.668Z,3004
2018-10-04T10:15:59.662Z,3112
2018-10-04T10:16:59.390Z,3012
2018-10-04T10:17:59.134Z,2976
2018-10-04T10:18:59.123Z,2968
2018-10-04T10:19:59.625Z,2964
2018-10-04T10:20:59.557Z,2948
2018-10-04T10:21:59.610Z,2932
2018-10-04T10:22:59.597Z,2920
2018-10-04T10:23:59.595Z,2888
2018-10-04T10:24:59.327Z,2936
2018-10-04T10:25:59.582Z,2964
2018-10-04T10:26:59.572Z,3024
2018-10-04T10:27:59.557Z,3076
2018-10-04T10:28:59.303Z,3100
2018-10-04T10:29:59.296Z,3168
2018-10-04T10:30:59.538Z,3288
2018-10-04T10:31:59.536Z,3384
2018-10-04T10:32:59.518Z,3536
2018-10-04T10:33:59.513Z,3700
2018-10-04T10:34:58.998Z,3692
2018-10-04T10:35:59.247Z,3676
2018-10-04T10:36:59.488Z,3716
2018-10-04T10:37:59.482Z,3836
2018-10-04T10:38:59.234Z,3932
2018-10-04T10:39:59.424Z,4016
2018-10-04T10:40:59.468Z,3944
2018-10-04T10:41:59.453Z,3992
2018-10-04T10:42:59.444Z,4112
2018-10-04T10:43:59.179Z,4276
2018-10-04T10:44:59.431Z,4388
2018-10-04T10:45:59.166Z,4368
2018-10-04T10:46:59.423Z,4448
2018-10-04T10:47:59.416Z,4312
2018-10-04T10:48:59.414Z,4312
2018-10-04T10:49:59.393Z,4372
2018-10-04T10:50:59.389Z,4416
2018-10-04T10:51:59.121Z,4572
2018-10-04T10:52:59.116Z,4604
2018-10-04T10:53:59.357Z,4908
2018-10-04T10:54:59.358Z,5472
2018-10-04T10:55:59.393Z,5968
2018-10-04T10:56:58.834Z,6016
2018-10-04T10:57:59.084Z,5640
2018-10-04T10:58:59.326Z,5372
2018-10-04T10:59:59.331Z,5172
2018-10-04T11:00:59.451Z,5192
2018-10-04T11:01:59.065Z,5636
2018-10-04T11:02:59.306Z,6212
2018-10-04T11:03:59.036Z,6744
2018-10-04T11:04:59.295Z,6868
2018-10-04T11:05:59.023Z,6732
2018-10-04T11:06:59.270Z,6448
2018-10-04T11:07:59.275Z,6320
2018-10-04T11:08:59.009Z,6364
2018-10-04T11:09:59.436Z,6588
2018-10-04T11:10:59.246Z,6784
2018-10-04T11:11:59.241Z,6704
2018-10-04T11:12:58.980Z,6460
2018-10-04T11:13:59.234Z,6160
2018-10-04T11:14:59.213Z,5812
2018-10-04T11:15:58.954Z,5696
2018-10-04T11:16:59.403Z,5720
2018-10-04T11:17:59.815Z,5504
2018-10-04T11:18:58.931Z,5512
2018-10-04T11:19:59.181Z,5592
2018-10-04T11:20:58.674Z,5624
2018-10-04T11:21:59.179Z,5632
2018-10-04T11:22:58.908Z,5616
2018-10-04T11:23:59.160Z,5432
2018-10-04T11:24:59.158Z,5292
2018-10-04T11:25:58.634Z,4988
2018-10-04T11:26:58.880Z,4464
2018-10-04T11:27:58.874Z,4140
2018-10-04T11:28:58.921Z,4016
2018-10-04T11:29:58.867Z,3936
2018-10-04T11:30:59.130Z,3956
2018-10-04T11:31:59.129Z,4056
2018-10-04T11:32:59.342Z,4448
2018-10-04T11:33:59.095Z,4540
2018-10-04T11:34:59.084Z,4656
2018-10-04T11:35:59.077Z,4720
2018-10-04T11:36:59.075Z,4640
2018-10-04T11:37:58.817Z,4488
2018-10-04T11:38:58.301Z,4432
2018-10-04T11:39:59.064Z,4456
2018-10-04T11:40:59.054Z,4420
2018-10-04T11:41:59.052Z,4204
2018-10-04T11:42:58.784Z,3944
2018-10-04T11:43:59.029Z,3804
2018-10-04T11:44:59.018Z,3708
2018-10-04T11:45:59.014Z,3608
2018-10-04T11:46:59.014Z,3628
2018-10-04T11:47:59.006Z,3492
2018-10-04T11:48:59.009Z,3396
2018-10-04T11:49:58.990Z,3272
2018-10-04T11:50:58.993Z,3284
2018-10-04T11:51:58.977Z,3416
2018-10-04T11:52:58.971Z,3768
2018-10-04T11:53:58.713Z,4068
2018-10-04T11:54:58.962Z,4504
2018-10-04T11:55:58.956Z,4644
2018-10-04T11:56:58.799Z,4516
2018-10-04T11:57:58.948Z,4184
2018-10-04T11:58:58.964Z,3976
2018-10-04T11:59:58.421Z,3844
2018-10-04T12:00:59.045Z,3672
2018-10-04T12:01:58.931Z,3496
2018-10-04T12:02:58.678Z,3344
2018-10-04T12:03:58.681Z,3232
2018-10-04T12:04:58.647Z,3132
2018-10-04T12:05:58.899Z,3076
2018-10-04T12:06:59.136Z,3052
2018-10-04T12:07:58.884Z,3052
2018-10-04T12:08:58.622Z,3020
2018-10-04T12:09:58.871Z,3012
2018-10-04T12:10:58.872Z,2968
2018-10-04T12:11:58.343Z,2980
2018-10-04T12:12:59.237Z,3096
2018-10-04T12:13:58.844Z,3400
2018-10-04T12:14:58.581Z,3748
2018-10-04T12:15:58.831Z,4052
2018-10-04T12:16:58.572Z,4112
2018-10-04T12:17:58.565Z,4072
2018-10-04T12:18:59.077Z,4036
2018-10-04T12:19:58.544Z,3996
2018-10-04T12:20:58.292Z,4028
2018-10-04T12:21:58.547Z,4060
2018-10-04T12:22:58.791Z,3924
2018-10-04T12:23:58.773Z,3768
2018-10-04T12:24:58.416Z,3676
2018-10-04T12:25:58.764Z,3600
2018-10-04T12:26:58.763Z,3512
2018-10-04T12:27:58.761Z,3488
2018-10-04T12:28:58.750Z,3460
2018-10-04T12:29:58.224Z,3420
2018-10-04T12:30:59.206Z,3388
2018-10-04T12:31:58.726Z,3272
2018-10-04T12:32:58.732Z,3376
2018-10-04T12:33:58.716Z,3412
2018-10-04T12:34:58.704Z,3524
2018-10-04T12:35:58.745Z,3588
2018-10-04T12:36:58.436Z,3588
2018-10-04T12:37:58.690Z,3564
2018-10-04T12:38:58.434Z,3556
2018-10-04T12:39:58.421Z,3580
2018-10-04T12:40:58.674Z,3700
2018-10-04T12:41:58.665Z,3980
2018-10-04T12:42:58.405Z,4304
2018-10-04T12:43:58.854Z,4536
2018-10-04T12:44:58.403Z,4652
2018-10-04T12:45:58.644Z,4676
2018-10-04T12:46:58.636Z,4596
2018-10-04T12:47:58.375Z,4488
2018-10-04T12:48:58.630Z,4404
2018-10-04T12:49:58.371Z,4488
2018-10-04T12:50:58.099Z,4516
2018-10-04T12:51:58.605Z,4516
2018-10-04T12:52:58.341Z,4468
2018-10-04T12:53:58.085Z,4392
2018-10-04T12:54:58.588Z,4340
2018-10-04T12:55:58.337Z,4260
2018-10-04T12:56:58.321Z,4232
2018-10-04T12:57:58.314Z,4360
2018-10-04T12:58:58.563Z,4392
2018-10-04T12:59:58.557Z,4276
2018-10-04T13:00:58.678Z,4140
2018-10-04T13:01:58.297Z,4064
2018-10-04T13:02:58.539Z,3940
2018-10-04T13:03:58.535Z,3804
2018-10-04T13:04:58.015Z,3604
2018-10-04T13:05:58.011Z,3748
2018-10-04T13:06:59.758Z,3680
2018-10-04T13:07:57.997Z,3420
2018-10-04T13:08:58.505Z,3364
2018-10-04T13:09:58.504Z,3344
2018-10-04T13:10:58.503Z,3296
2018-10-04T13:11:58.233Z,3256
2018-10-04T13:12:58.544Z,3236
2018-10-04T13:13:58.478Z,3208
2018-10-04T13:14:58.227Z,3196
2018-10-04T13:15:58.217Z,3272
2018-10-04T13:16:58.467Z,3284
2018-10-04T13:17:58.451Z,3272
2018-10-04T13:18:58.192Z,3164
2018-10-04T13:19:58.456Z,3164
2018-10-04T13:20:58.860Z,3184
2018-10-04T13:21:58.432Z,3164
2018-10-04T13:22:58.431Z,3196
2018-10-04T13:23:58.416Z,3156
2018-10-04T13:24:58.419Z,3132
2018-10-04T13:25:58.412Z,3128
2018-10-04T13:26:58.146Z,3148
2018-10-04T13:27:58.885Z,3128
2018-10-04T13:28:58.387Z,3104
2018-10-04T13:29:58.396Z,3084
2018-10-04T13:30:58.381Z,3080
2018-10-04T13:31:58.376Z,3044
2018-10-04T13:32:58.115Z,3020
2018-10-04T13:33:58.102Z,2984
2018-10-04T13:34:58.423Z,2912
2018-10-04T13:35:58.369Z,2908
2018-10-04T13:36:58.346Z,2892
2018-10-04T13:37:58.332Z,2904
2018-10-04T13:38:58.327Z,2896
2018-10-04T13:39:58.072Z,2884
2018-10-04T13:40:58.783Z,2868
2018-10-04T13:41:57.798Z,2844
2018-10-04T13:42:58.054Z,2852
2018-10-04T13:43:58.299Z,2856
2018-10-04T13:44:58.397Z,2772
2018-10-04T13:45:58.060Z,2576
2018-10-04T13:46:58.033Z,2492
2018-10-04T13:47:58.278Z,2560
2018-10-04T13:48:58.018Z,2660
2018-10-04T13:49:58.008Z,2648